Terminal Aerodrome Forecast
Issued by NWS

Home | Current Version | Previous Version | Text Only | Print | Product List | Glossary Off
Versions: 1 2 3 4 5 6 7 8 9 10 11 12 13 14 15 16

000
FTUS41 KCLE 171358 AAA
TAFFDY
TAF AMD
KFDY 171358Z 1714/1812 19012KT P6SM SCT030 OVC110
     FM171600 19010KT P6SM -SHRA VCTS SCT030 BKN050CB
      TEMPO 1716/1720 2SM TSRA OVC025CB
     FM172000 21010G20KT P6SM VCTS SCT040CB BKN060
     FM172200 23008KT P6SM SCT060 BKN200=

USA.gov is the U.S. government's official web portal to all federal, state and local government web resources and services.